sensor_id;sensor_type;location;lat;lon;timestamp;pressure;altitude;pressure_sealevel;temperature;humidity
45763;BME280;37512;52.408;13.356;2023-04-21T00:03:22;101494.06;;;10.22;100.00
45763;BME280;37512;52.408;13.356;2023-04-21T00:07:24;101490.34;;;10.18;100.00
45763;BME280;37512;52.408;13.356;2023-04-21T00:11:26;101489.88;;;10.16;100.00
45763;BME280;37512;52.408;13.356;2023-04-21T00:15:28;101491.06;;;10.27;100.00
45763;BME280;37512;52.408;13.356;2023-04-21T00:19:29;101488.63;;;10.25;100.00
45763;BME280;37512;52.408;13.356;2023-04-21T00:23:31;101487.22;;;10.19;100.00
45763;BME280;37512;52.408;13.356;2023-04-21T00:27:33;101489.31;;;10.22;100.00
45763;BME280;37512;52.408;13.356;2023-04-21T00:31:34;101494.50;;;10.24;100.00
45763;BME280;37512;52.408;13.356;2023-04-21T00:35:36;101482.69;;;10.15;100.00
45763;BME280;37512;52.408;13.356;2023-04-21T00:39:38;101476.66;;;10.34;100.00
45763;BME280;37512;52.408;13.356;2023-04-21T00:44:02;101488.78;;;10.29;100.00
45763;BME280;37512;52.408;13.356;2023-04-21T00:48:03;101490.13;;;10.23;100.00
45763;BME280;37512;52.408;13.356;2023-04-21T00:52:05;101482.44;;;10.29;100.00
45763;BME280;37512;52.408;13.356;2023-04-21T00:56:07;101483.31;;;10.20;100.00
45763;BME280;37512;52.408;13.356;2023-04-21T01:00:09;101479.66;;;10.29;100.00
45763;BME280;37512;52.408;13.356;2023-04-21T01:04:11;101479.72;;;10.20;100.00
45763;BME280;37512;52.408;13.356;2023-04-21T01:08:14;101484.88;;;10.09;100.00
45763;BME280;37512;52.408;13.356;2023-04-21T01:12:15;101475.06;;;10.12;100.00
45763;BME280;37512;52.408;13.356;2023-04-21T01:16:22;101473.00;;;10.09;100.00
45763;BME280;37512;52.408;13.356;2023-04-21T01:20:24;101466.72;;;9.99;100.00
45763;BME280;37512;52.408;13.356;2023-04-21T01:24:44;101474.09;;;9.83;100.00
45763;BME280;37512;52.408;13.356;2023-04-21T01:28:46;101471.75;;;9.85;100.00
45763;BME280;37512;52.408;13.356;2023-04-21T01:32:49;101462.38;;;9.77;100.00
45763;BME280;37512;52.408;13.356;2023-04-21T01:36:50;101468.63;;;9.74;100.00
45763;BME280;37512;52.408;13.356;2023-04-21T01:40:53;101466.41;;;9.68;100.00
45763;BME280;37512;52.408;13.356;2023-04-21T01:44:55;101457.53;;;9.53;100.00
45763;BME280;37512;52.408;13.356;2023-04-21T01:48:57;101460.41;;;9.45;100.00
45763;BME280;37512;52.408;13.356;2023-04-21T01:52:58;101456.22;;;9.38;100.00
45763;BME280;37512;52.408;13.356;2023-04-21T01:57:00;101453.84;;;9.49;100.00
45763;BME280;37512;52.408;13.356;2023-04-21T02:01:02;101460.00;;;9.34;100.00
45763;BME280;37512;52.408;13.356;2023-04-21T02:05:04;101452.03;;;9.32;100.00
45763;BME280;37512;52.408;13.356;2023-04-21T02:09:06;101448.38;;;9.40;100.00
45763;BME280;37512;52.408;13.356;2023-04-21T02:13:07;101444.47;;;9.20;100.00
45763;BME280;37512;52.408;13.356;2023-04-21T02:17:09;101440.63;;;9.13;100.00
45763;BME280;37512;52.408;13.356;2023-04-21T02:21:11;101446.44;;;9.20;100.00
45763;BME280;37512;52.408;13.356;2023-04-21T02:25:12;101439.41;;;9.23;100.00
45763;BME280;37512;52.408;13.356;2023-04-21T02:29:13;101439.06;;;9.24;100.00
45763;BME280;37512;52.408;13.356;2023-04-21T02:33:15;101442.72;;;9.16;100.00
45763;BME280;37512;52.408;13.356;2023-04-21T02:37:17;101436.22;;;9.12;100.00
45763;BME280;37512;52.408;13.356;2023-04-21T02:41:18;101436.22;;;9.12;100.00
45763;BME280;37512;52.408;13.356;2023-04-21T02:45:20;101436.44;;;9.07;100.00
45763;BME280;37512;52.408;13.356;2023-04-21T02:49:23;101446.81;;;9.10;100.00
45763;BME280;37512;52.408;13.356;2023-04-21T02:53:25;101443.94;;;9.06;100.00
45763;BME280;37512;52.408;13.356;2023-04-21T02:57:26;101448.13;;;9.12;100.00
45763;BME280;37512;52.408;13.356;2023-04-21T03:01:28;101434.63;;;9.11;100.00
45763;BME280;37512;52.408;13.356;2023-04-21T03:05:29;101432.69;;;9.03;100.00
45763;BME280;37512;52.408;13.356;2023-04-21T03:09:31;101439.19;;;9.07;100.00
45763;BME280;37512;52.408;13.356;2023-04-21T03:13:32;101433.13;;;8.92;100.00
45763;BME280;37512;52.408;13.356;2023-04-21T03:17:34;101435.41;;;8.90;100.00
45763;BME280;37512;52.408;13.356;2023-04-21T03:21:38;101432.00;;;8.85;100.00
45763;BME280;37512;52.408;13.356;2023-04-21T03:25:40;101439.31;;;8.89;100.00
45763;BME280;37512;52.408;13.356;2023-04-21T03:29:41;101439.56;;;8.75;100.00
45763;BME280;37512;52.408;13.356;2023-04-21T03:33:43;101438.63;;;8.71;100.00
45763;BME280;37512;52.408;13.356;2023-04-21T03:37:44;101435.50;;;8.73;100.00
45763;BME280;37512;52.408;13.356;2023-04-21T03:41:46;101425.66;;;8.63;100.00
45763;BME280;37512;52.408;13.356;2023-04-21T03:45:48;101440.63;;;8.62;100.00
45763;BME280;37512;52.408;13.356;2023-04-21T03:49:49;101425.50;;;8.59;100.00
45763;BME280;37512;52.408;13.356;2023-04-21T03:53:51;101426.22;;;8.48;100.00
45763;BME280;37512;52.408;13.356;2023-04-21T03:57:52;101436.78;;;8.46;100.00
45763;BME280;37512;52.408;13.356;2023-04-21T04:01:54;101431.22;;;8.54;100.00
45763;BME280;37512;52.408;13.356;2023-04-21T04:05:56;101446.69;;;8.55;100.00
45763;BME280;37512;52.408;13.356;2023-04-21T04:09:57;101439.91;;;8.35;100.00
45763;BME280;37512;52.408;13.356;2023-04-21T04:13:59;101440.88;;;8.40;100.00
45763;BME280;37512;52.408;13.356;2023-04-21T04:18:01;101442.22;;;8.25;100.00
45763;BME280;37512;52.408;13.356;2023-04-21T04:22:02;101443.50;;;8.36;100.00
45763;BME280;37512;52.408;13.356;2023-04-21T04:26:04;101449.69;;;8.33;100.00
45763;BME280;37512;52.408;13.356;2023-04-21T04:30:06;101444.81;;;8.30;100.00
45763;BME280;37512;52.408;13.356;2023-04-21T04:34:08;101442.31;;;8.46;100.00
45763;BME280;37512;52.408;13.356;2023-04-21T04:38:09;101447.34;;;8.52;100.00
45763;BME280;37512;52.408;13.356;2023-04-21T04:42:11;101446.22;;;8.53;100.00
45763;BME280;37512;52.408;13.356;2023-04-21T04:46:12;101455.31;;;8.54;100.00
45763;BME280;37512;52.408;13.356;2023-04-21T04:50:14;101459.66;;;8.64;100.00
45763;BME280;37512;52.408;13.356;2023-04-21T04:54:16;101459.47;;;8.69;100.00
45763;BME280;37512;52.408;13.356;2023-04-21T04:58:18;101453.41;;;8.75;100.00
45763;BME280;37512;52.408;13.356;2023-04-21T05:02:19;101461.28;;;8.65;100.00
45763;BME280;37512;52.408;13.356;2023-04-21T05:06:22;101458.28;;;8.78;100.00
45763;BME280;37512;52.408;13.356;2023-04-21T05:10:24;101459.78;;;8.76;100.00
45763;BME280;37512;52.408;13.356;2023-04-21T05:14:26;101454.16;;;8.85;100.00
45763;BME280;37512;52.408;13.356;2023-04-21T05:18:28;101458.63;;;8.98;100.00
45763;BME280;37512;52.408;13.356;2023-04-21T05:22:29;101454.59;;;8.95;100.00
45763;BME280;37512;52.408;13.356;2023-04-21T05:26:31;101459.00;;;9.17;100.00
45763;BME280;37512;52.408;13.356;2023-04-21T05:30:32;101466.16;;;9.18;100.00
45763;BME280;37512;52.408;13.356;2023-04-21T05:34:34;101468.38;;;9.25;100.00
45763;BME280;37512;52.408;13.356;2023-04-21T05:38:36;101464.75;;;9.33;100.00
45763;BME280;37512;52.408;13.356;2023-04-21T05:42:37;101465.53;;;9.34;100.00
45763;BME280;37512;52.408;13.356;2023-04-21T05:46:39;101462.53;;;9.60;100.00
45763;BME280;37512;52.408;13.356;2023-04-21T05:50:41;101463.88;;;9.75;100.00
45763;BME280;37512;52.408;13.356;2023-04-21T05:54:42;101461.50;;;9.86;100.00
45763;BME280;37512;52.408;13.356;2023-04-21T05:58:43;101462.00;;;10.00;100.00
45763;BME280;37512;52.408;13.356;2023-04-21T06:02:45;101468.38;;;10.13;100.00
45763;BME280;37512;52.408;13.356;2023-04-21T06:06:47;101466.88;;;10.15;100.00
45763;BME280;37512;52.408;13.356;2023-04-21T06:10:48;101461.16;;;10.33;100.00
45763;BME280;37512;52.408;13.356;2023-04-21T06:14:50;101450.88;;;10.33;100.00
45763;BME280;37512;52.408;13.356;2023-04-21T06:18:51;101452.59;;;10.62;100.00
45763;BME280;37512;52.408;13.356;2023-04-21T06:22:53;101453.19;;;10.68;100.00
45763;BME280;37512;52.408;13.356;2023-04-21T06:26:55;101448.41;;;10.81;100.00
45763;BME280;37512;52.408;13.356;2023-04-21T06:30:57;101439.28;;;10.93;100.00
45763;BME280;37512;52.408;13.356;2023-04-21T06:34:59;101445.84;;;11.00;100.00
45763;BME280;37512;52.408;13.356;2023-04-21T06:39:00;101449.19;;;11.06;100.00
45763;BME280;37512;52.408;13.356;2023-04-21T06:43:02;101440.44;;;11.32;100.00
45763;BME280;37512;52.408;13.356;2023-04-21T06:47:04;101435.81;;;11.36;100.00
45763;BME280;37512;52.408;13.356;2023-04-21T06:51:05;101438.03;;;11.59;100.00
45763;BME280;37512;52.408;13.356;2023-04-21T06:55:07;101432.03;;;11.57;100.00
45763;BME280;37512;52.408;13.356;2023-04-21T06:59:08;101436.38;;;11.70;100.00
45763;BME280;37512;52.408;13.356;2023-04-21T07:03:10;101434.09;;;12.04;99.03
45763;BME280;37512;52.408;13.356;2023-04-21T07:07:13;101440.31;;;12.29;100.00
45763;BME280;37512;52.408;13.356;2023-04-21T07:11:14;101433.22;;;12.31;95.74
45763;BME280;37512;52.408;13.356;2023-04-21T07:15:16;101437.06;;;12.43;94.19
45763;BME280;37512;52.408;13.356;2023-04-21T07:19:18;101429.53;;;12.59;92.98
45763;BME280;37512;52.408;13.356;2023-04-21T07:23:20;101439.28;;;12.69;91.73
45763;BME280;37512;52.408;13.356;2023-04-21T07:27:21;101431.56;;;12.78;91.35
45763;BME280;37512;52.408;13.356;2023-04-21T07:31:23;101432.91;;;13.04;89.08
45763;BME280;37512;52.408;13.356;2023-04-21T07:35:25;101425.84;;;13.26;89.25
45763;BME280;37512;52.408;13.356;2023-04-21T07:39:27;101425.00;;;13.41;87.07
45763;BME280;37512;52.408;13.356;2023-04-21T07:43:28;101427.31;;;13.58;84.74
45763;BME280;37512;52.408;13.356;2023-04-21T07:47:31;101425.19;;;13.94;84.12
45763;BME280;37512;52.408;13.356;2023-04-21T07:51:33;101425.13;;;13.91;79.44
45763;BME280;37512;52.408;13.356;2023-04-21T07:55:35;101434.69;;;14.13;82.51
45763;BME280;37512;52.408;13.356;2023-04-21T07:59:37;101424.44;;;14.20;79.37
45763;BME280;37512;52.408;13.356;2023-04-21T08:03:39;101425.75;;;14.27;77.66
45763;BME280;37512;52.408;13.356;2023-04-21T08:07:40;101428.16;;;14.51;78.31
45763;BME280;37512;52.408;13.356;2023-04-21T08:11:42;101420.13;;;14.99;71.67
45763;BME280;37512;52.408;13.356;2023-04-21T08:15:43;101420.31;;;15.14;71.83
45763;BME280;37512;52.408;13.356;2023-04-21T08:19:45;101428.25;;;15.42;70.48
45763;BME280;37512;52.408;13.356;2023-04-21T08:23:47;101427.88;;;15.77;65.04
45763;BME280;37512;52.408;13.356;2023-04-21T08:27:48;101423.28;;;15.96;62.84
45763;BME280;37512;52.408;13.356;2023-04-21T08:31:50;101425.13;;;16.22;61.60
45763;BME280;37512;52.408;13.356;2023-04-21T08:35:51;101418.81;;;16.32;63.45
45763;BME280;37512;52.408;13.356;2023-04-21T08:40:06;101415.09;;;16.76;62.96
45763;BME280;37512;52.408;13.356;2023-04-21T08:44:08;101410.72;;;16.75;60.03
45763;BME280;37512;52.408;13.356;2023-04-21T08:48:13;101408.47;;;16.99;58.32
45763;BME280;37512;52.408;13.356;2023-04-21T08:52:19;101412.91;;;17.03;57.88
45763;BME280;37512;52.408;13.356;2023-04-21T08:56:20;101412.22;;;17.24;54.48
45763;BME280;37512;52.408;13.356;2023-04-21T09:00:22;101419.97;;;17.70;52.52
45763;BME280;37512;52.408;13.356;2023-04-21T09:04:23;101414.78;;;17.72;51.36
45763;BME280;37512;52.408;13.356;2023-04-21T09:08:26;101410.03;;;17.84;51.16
45763;BME280;37512;52.408;13.356;2023-04-21T09:12:28;101411.25;;;18.04;51.70
45763;BME280;37512;52.408;13.356;2023-04-21T09:16:31;101410.44;;;18.39;50.08
45763;BME280;37512;52.408;13.356;2023-04-21T09:20:35;101415.66;;;18.09;46.81
45763;BME280;37512;52.408;13.356;2023-04-21T09:24:43;101409.66;;;18.32;48.19
45763;BME280;37512;52.408;13.356;2023-04-21T09:28:46;101410.03;;;18.55;47.81
45763;BME280;37512;52.408;13.356;2023-04-21T09:32:48;101399.16;;;18.93;46.73
45763;BME280;37512;52.408;13.356;2023-04-21T09:37:00;101398.75;;;18.88;45.33
45763;BME280;37512;52.408;13.356;2023-04-21T09:41:02;101405.56;;;18.90;46.90
45763;BME280;37512;52.408;13.356;2023-04-21T09:45:04;101389.44;;;19.16;45.07
45763;BME280;37512;52.408;13.356;2023-04-21T09:49:10;101390.63;;;19.15;46.30
45763;BME280;37512;52.408;13.356;2023-04-21T09:53:15;101387.94;;;19.67;44.86
45763;BME280;37512;52.408;13.356;2023-04-21T09:57:24;101398.38;;;19.77;44.30
45763;BME280;37512;52.408;13.356;2023-04-21T10:01:26;101377.84;;;19.80;42.99
45763;BME280;37512;52.408;13.356;2023-04-21T10:05:28;101384.81;;;20.17;43.16
45763;BME280;37512;52.408;13.356;2023-04-21T10:09:42;101384.78;;;20.21;43.75
45763;BME280;37512;52.408;13.356;2023-04-21T10:13:45;101381.59;;;20.15;41.78
45763;BME280;37512;52.408;13.356;2023-04-21T10:17:47;101378.88;;;20.50;42.88
45763;BME280;37512;52.408;13.356;2023-04-21T10:21:50;101374.88;;;20.47;40.05
45763;BME280;37512;52.408;13.356;2023-04-21T10:25:52;101371.75;;;20.38;42.20
45763;BME280;37512;52.408;13.356;2023-04-21T10:29:54;101374.72;;;20.20;42.03
45763;BME280;37512;52.408;13.356;2023-04-21T10:38:08;101360.91;;;20.78;41.11
45763;BME280;37512;52.408;13.356;2023-04-21T10:46:44;101348.38;;;21.13;40.02
45763;BME280;37512;52.408;13.356;2023-04-21T10:50:47;101350.53;;;20.67;38.55
45763;BME280;37512;52.408;13.356;2023-04-21T10:55:05;101351.84;;;21.55;39.41
45763;BME280;37512;52.408;13.356;2023-04-21T10:59:07;101337.53;;;21.42;37.94
45763;BME280;37512;52.408;13.356;2023-04-21T11:03:08;101334.38;;;21.64;38.79
45763;BME280;37512;52.408;13.356;2023-04-21T11:11:21;101327.41;;;21.72;36.07
45763;BME280;37512;52.408;13.356;2023-04-21T11:15:24;101318.28;;;21.61;38.83
45763;BME280;37512;52.408;13.356;2023-04-21T11:19:25;101315.22;;;21.75;38.00
45763;BME280;37512;52.408;13.356;2023-04-21T11:23:27;101313.84;;;22.10;37.63
45763;BME280;37512;52.408;13.356;2023-04-21T11:27:28;101300.13;;;21.85;37.27
45763;BME280;37512;52.408;13.356;2023-04-21T11:31:31;101304.13;;;22.11;35.61
45763;BME280;37512;52.408;13.356;2023-04-21T11:35:32;101307.88;;;22.05;35.94
45763;BME280;37512;52.408;13.356;2023-04-21T11:39:34;101292.09;;;21.84;35.30
45763;BME280;37512;52.408;13.356;2023-04-21T11:43:36;101293.56;;;21.92;34.47
45763;BME280;37512;52.408;13.356;2023-04-21T11:47:38;101293.00;;;21.77;35.84
45763;BME280;37512;52.408;13.356;2023-04-21T11:51:42;101305.53;;;22.87;34.73
45763;BME280;37512;52.408;13.356;2023-04-21T11:55:46;101289.34;;;22.87;34.75
45763;BME280;37512;52.408;13.356;2023-04-21T11:59:48;101293.47;;;22.83;35.71
45763;BME280;37512;52.408;13.356;2023-04-21T12:03:53;101296.41;;;23.35;33.51
45763;BME280;37512;52.408;13.356;2023-04-21T12:07:56;101281.75;;;23.04;35.40
45763;BME280;37512;52.408;13.356;2023-04-21T12:11:58;101275.94;;;23.28;35.10
45763;BME280;37512;52.408;13.356;2023-04-21T12:16:01;101274.28;;;23.47;36.53
45763;BME280;37512;52.408;13.356;2023-04-21T12:20:07;101268.53;;;23.67;33.91
45763;BME280;37512;52.408;13.356;2023-04-21T12:24:08;101260.53;;;23.12;33.50
45763;BME280;37512;52.408;13.356;2023-04-21T12:28:10;101260.59;;;23.45;35.31
45763;BME280;37512;52.408;13.356;2023-04-21T12:32:11;101259.63;;;23.52;33.99
45763;BME280;37512;52.408;13.356;2023-04-21T12:36:13;101251.91;;;23.36;32.92
45763;BME280;37512;52.408;13.356;2023-04-21T12:40:15;101254.19;;;23.57;33.88
45763;BME280;37512;52.408;13.356;2023-04-21T12:44:17;101254.03;;;23.48;34.62
45763;BME280;37512;52.408;13.356;2023-04-21T12:48:18;101250.75;;;23.99;33.96
45763;BME280;37512;52.408;13.356;2023-04-21T12:52:21;101246.72;;;23.14;33.87
45763;BME280;37512;52.408;13.356;2023-04-21T12:56:22;101237.84;;;23.82;32.99
45763;BME280;37512;52.408;13.356;2023-04-21T13:00:24;101233.03;;;23.13;34.05
45763;BME280;37512;52.408;13.356;2023-04-21T13:04:25;101227.03;;;23.44;32.79
45763;BME280;37512;52.408;13.356;2023-04-21T13:08:27;101224.91;;;24.55;32.76
45763;BME280;37512;52.408;13.356;2023-04-21T13:12:29;101232.59;;;24.26;32.71
45763;BME280;37512;52.408;13.356;2023-04-21T13:16:30;101214.53;;;24.19;31.88
45763;BME280;37512;52.408;13.356;2023-04-21T13:20:32;101218.09;;;24.53;31.55
45763;BME280;37512;52.408;13.356;2023-04-21T13:24:33;101212.75;;;24.26;32.76
45763;BME280;37512;52.408;13.356;2023-04-21T13:28:35;101214.50;;;24.36;33.54
45763;BME280;37512;52.408;13.356;2023-04-21T13:32:38;101207.28;;;24.18;32.21
45763;BME280;37512;52.408;13.356;2023-04-21T13:36:40;101201.13;;;24.36;31.84
45763;BME280;37512;52.408;13.356;2023-04-21T13:40:42;101192.81;;;24.00;31.28
45763;BME280;37512;52.408;13.356;2023-04-21T13:44:43;101175.69;;;23.74;32.45
45763;BME280;37512;52.408;13.356;2023-04-21T13:48:45;101173.47;;;23.16;33.21
45763;BME280;37512;52.408;13.356;2023-04-21T13:52:47;101174.63;;;22.46;34.16
45763;BME280;37512;52.408;13.356;2023-04-21T13:56:48;101175.97;;;21.78;35.00
45763;BME280;37512;52.408;13.356;2023-04-21T14:00:51;101157.34;;;22.61;34.53
45763;BME280;37512;52.408;13.356;2023-04-21T14:04:52;101164.41;;;24.16;32.80
45763;BME280;37512;52.408;13.356;2023-04-21T14:08:54;101154.81;;;23.97;31.86
45763;BME280;37512;52.408;13.356;2023-04-21T14:12:56;101149.72;;;24.34;31.63
45763;BME280;37512;52.408;13.356;2023-04-21T14:16:57;101149.06;;;24.43;30.11
45763;BME280;37512;52.408;13.356;2023-04-21T14:20:59;101134.47;;;23.86;31.58
45763;BME280;37512;52.408;13.356;2023-04-21T14:25:01;101127.44;;;24.20;30.95
45763;BME280;37512;52.408;13.356;2023-04-21T14:29:02;101133.81;;;23.49;31.65
45763;BME280;37512;52.408;13.356;2023-04-21T14:33:04;101127.38;;;24.36;30.89
45763;BME280;37512;52.408;13.356;2023-04-21T14:37:06;101120.44;;;23.50;31.94
45763;BME280;37512;52.408;13.356;2023-04-21T14:41:08;101110.63;;;23.54;32.14
45763;BME280;37512;52.408;13.356;2023-04-21T14:45:10;101100.16;;;23.51;32.21
45763;BME280;37512;52.408;13.356;2023-04-21T14:49:11;101101.16;;;23.90;31.89
45763;BME280;37512;52.408;13.356;2023-04-21T14:53:13;101103.50;;;24.21;30.99
45763;BME280;37512;52.408;13.356;2023-04-21T14:57:15;101100.16;;;24.65;31.64
45763;BME280;37512;52.408;13.356;2023-04-21T15:01:21;101090.56;;;25.35;29.20
45763;BME280;37512;52.408;13.356;2023-04-21T15:05:26;101094.69;;;25.21;30.27
45763;BME280;37512;52.408;13.356;2023-04-21T15:09:28;101084.06;;;24.61;30.12
45763;BME280;37512;52.408;13.356;2023-04-21T15:13:29;101083.94;;;24.65;30.64
45763;BME280;37512;52.408;13.356;2023-04-21T15:17:32;101074.94;;;24.28;30.66
45763;BME280;37512;52.408;13.356;2023-04-21T15:21:34;101073.50;;;23.03;31.66
45763;BME280;37512;52.408;13.356;2023-04-21T15:25:35;101073.31;;;23.10;31.51
45763;BME280;37512;52.408;13.356;2023-04-21T15:29:36;101063.22;;;22.76;31.76
45763;BME280;37512;52.408;13.356;2023-04-21T15:33:38;101056.78;;;23.09;31.83
45763;BME280;37512;52.408;13.356;2023-04-21T15:37:40;101060.94;;;22.88;31.87
45763;BME280;37512;52.408;13.356;2023-04-21T15:41:41;101050.63;;;22.45;33.50
45763;BME280;37512;52.408;13.356;2023-04-21T15:45:43;101049.19;;;22.37;33.22
45763;BME280;37512;52.408;13.356;2023-04-21T15:49:45;101038.31;;;21.59;34.30
45763;BME280;37512;52.408;13.356;2023-04-21T15:53:47;101038.69;;;21.81;34.15
45763;BME280;37512;52.408;13.356;2023-04-21T15:57:49;101037.88;;;21.60;34.03
45763;BME280;37512;52.408;13.356;2023-04-21T16:01:51;101035.81;;;22.01;33.93
45763;BME280;37512;52.408;13.356;2023-04-21T16:05:53;101021.28;;;22.19;33.40
45763;BME280;37512;52.408;13.356;2023-04-21T16:09:55;101028.00;;;22.08;33.41
45763;BME280;37512;52.408;13.356;2023-04-21T16:13:57;101030.63;;;21.79;33.70
45763;BME280;37512;52.408;13.356;2023-04-21T16:17:59;101024.72;;;21.74;33.56
45763;BME280;37512;52.408;13.356;2023-04-21T16:22:02;101012.75;;;21.66;34.41
45763;BME280;37512;52.408;13.356;2023-04-21T16:26:07;101009.19;;;21.62;34.00
45763;BME280;37512;52.408;13.356;2023-04-21T16:30:09;101005.94;;;22.72;32.61
45763;BME280;37512;52.408;13.356;2023-04-21T16:34:11;101010.13;;;21.95;33.06
45763;BME280;37512;52.408;13.356;2023-04-21T16:38:14;101002.66;;;22.74;31.83
45763;BME280;37512;52.408;13.356;2023-04-21T16:42:15;100997.88;;;23.04;31.54
45763;BME280;37512;52.408;13.356;2023-04-21T16:46:17;101004.34;;;22.88;31.19
45763;BME280;37512;52.408;13.356;2023-04-21T16:50:21;100994.00;;;22.12;32.43
45763;BME280;37512;52.408;13.356;2023-04-21T16:54:23;100992.78;;;22.13;32.18
45763;BME280;37512;52.408;13.356;2023-04-21T16:58:24;100991.31;;;21.25;34.15
45763;BME280;37512;52.408;13.356;2023-04-21T17:02:26;100992.19;;;20.78;34.05
45763;BME280;37512;52.408;13.356;2023-04-21T17:06:28;100990.50;;;21.04;34.56
45763;BME280;37512;52.408;13.356;2023-04-21T17:10:29;100997.75;;;21.49;33.51
45763;BME280;37512;52.408;13.356;2023-04-21T17:14:30;100993.63;;;21.10;34.36
45763;BME280;37512;52.408;13.356;2023-04-21T17:18:32;100993.84;;;20.76;35.04
45763;BME280;37512;52.408;13.356;2023-04-21T17:22:34;100992.25;;;20.98;34.97
45763;BME280;37512;52.408;13.356;2023-04-21T17:26:37;100986.59;;;20.98;34.30
45763;BME280;37512;52.408;13.356;2023-04-21T17:30:38;100989.16;;;20.65;34.85
45763;BME280;37512;52.408;13.356;2023-04-21T17:34:40;100990.50;;;20.03;35.41
45763;BME280;37512;52.408;13.356;2023-04-21T17:38:41;100989.84;;;19.92;36.04
45763;BME280;37512;52.408;13.356;2023-04-21T17:42:43;100992.91;;;18.94;36.41
45763;BME280;37512;52.408;13.356;2023-04-21T17:46:45;100991.81;;;18.81;37.95
45763;BME280;37512;52.408;13.356;2023-04-21T17:50:46;100988.22;;;18.25;38.56
45763;BME280;37512;52.408;13.356;2023-04-21T17:54:48;100987.41;;;18.28;38.35
45763;BME280;37512;52.408;13.356;2023-04-21T17:58:49;100984.75;;;17.99;39.52
45763;BME280;37512;52.408;13.356;2023-04-21T18:02:51;100983.25;;;17.69;38.99
45763;BME280;37512;52.408;13.356;2023-04-21T18:06:53;100987.66;;;17.85;39.52
45763;BME280;37512;52.408;13.356;2023-04-21T18:10:55;100984.53;;;17.58;39.80
45763;BME280;37512;52.408;13.356;2023-04-21T18:14:56;100987.38;;;17.43;40.01
45763;BME280;37512;52.408;13.356;2023-04-21T18:18:59;100985.84;;;17.24;40.19
45763;BME280;37512;52.408;13.356;2023-04-21T18:23:01;100988.25;;;17.19;40.44
45763;BME280;37512;52.408;13.356;2023-04-21T18:27:03;100988.25;;;17.19;41.10
45763;BME280;37512;52.408;13.356;2023-04-21T18:31:05;100989.09;;;16.98;40.95
45763;BME280;37512;52.408;13.356;2023-04-21T18:35:06;100989.47;;;16.78;41.90
45763;BME280;37512;52.408;13.356;2023-04-21T18:39:09;100993.09;;;16.82;41.93
45763;BME280;37512;52.408;13.356;2023-04-21T18:43:10;100983.84;;;16.46;41.80
45763;BME280;37512;52.408;13.356;2023-04-21T18:47:12;100991.44;;;16.24;43.14
45763;BME280;37512;52.408;13.356;2023-04-21T18:51:15;100989.84;;;16.44;43.11
45763;BME280;37512;52.408;13.356;2023-04-21T18:55:17;100987.81;;;16.09;42.88
45763;BME280;37512;52.408;13.356;2023-04-21T18:59:19;100985.78;;;15.95;43.54
45763;BME280;37512;52.408;13.356;2023-04-21T19:03:22;100998.56;;;15.93;44.10
45763;BME280;37512;52.408;13.356;2023-04-21T19:07:25;100986.22;;;16.12;43.54
45763;BME280;37512;52.408;13.356;2023-04-21T19:11:27;100986.94;;;15.94;43.82
45763;BME280;37512;52.408;13.356;2023-04-21T19:15:29;100988.94;;;15.83;44.11
45763;BME280;37512;52.408;13.356;2023-04-21T19:19:31;100987.72;;;15.77;44.34
45763;BME280;37512;52.408;13.356;2023-04-21T19:23:32;100980.00;;;15.59;44.75
45763;BME280;37512;52.408;13.356;2023-04-21T19:27:34;100977.63;;;15.61;44.49
45763;BME280;37512;52.408;13.356;2023-04-21T19:31:38;100982.53;;;15.79;45.30
45763;BME280;37512;52.408;13.356;2023-04-21T19:35:40;100981.06;;;15.26;45.82
45763;BME280;37512;52.408;13.356;2023-04-21T19:39:41;100981.94;;;15.44;45.04
45763;BME280;37512;52.408;13.356;2023-04-21T19:43:43;100988.69;;;15.33;45.26
45763;BME280;37512;52.408;13.356;2023-04-21T19:47:44;100984.72;;;15.41;45.06
45763;BME280;37512;52.408;13.356;2023-04-21T19:51:46;100980.63;;;15.20;45.81
45763;BME280;37512;52.408;13.356;2023-04-21T19:55:48;100982.41;;;14.88;45.67
45763;BME280;37512;52.408;13.356;2023-04-21T19:59:53;100984.41;;;14.91;46.26
45763;BME280;37512;52.408;13.356;2023-04-21T20:03:54;100983.25;;;14.95;47.76
45763;BME280;37512;52.408;13.356;2023-04-21T20:07:56;100992.66;;;15.32;46.71
45763;BME280;37512;52.408;13.356;2023-04-21T20:11:58;100989.38;;;15.15;46.73
45763;BME280;37512;52.408;13.356;2023-04-21T20:15:59;100995.00;;;15.22;47.06
45763;BME280;37512;52.408;13.356;2023-04-21T20:20:03;100986.59;;;14.60;47.72
45763;BME280;37512;52.408;13.356;2023-04-21T20:24:10;100999.50;;;14.79;48.69
45763;BME280;37512;52.408;13.356;2023-04-21T20:28:15;100994.41;;;14.47;48.54
45763;BME280;37512;52.408;13.356;2023-04-21T20:32:17;100989.28;;;14.12;50.15
45763;BME280;37512;52.408;13.356;2023-04-21T20:36:19;100996.66;;;14.34;49.66
45763;BME280;37512;52.408;13.356;2023-04-21T20:40:22;100995.06;;;14.33;50.61
45763;BME280;37512;52.408;13.356;2023-04-21T20:44:23;100994.34;;;14.40;51.11
45763;BME280;37512;52.408;13.356;2023-04-21T20:48:25;101003.97;;;14.05;50.85
45763;BME280;37512;52.408;13.356;2023-04-21T20:52:26;100997.91;;;13.99;52.26
45763;BME280;37512;52.408;13.356;2023-04-21T20:56:28;100994.22;;;14.29;52.06
45763;BME280;37512;52.408;13.356;2023-04-21T21:00:30;100998.25;;;13.94;53.81